Time;durP1;ratioP1;P1;durP2;ratioP2;P2;SDS_P1;SDS_P2;PMS_P1;PMS_P2;Temp;Humidity;BMP_temperature;BMP_pressure;BME280_temperature;BME280_humidity;BME280_pressure;Samples;Min_cycle;Max_cycle;Signal;HPM_P1;HPM_P2
2023/06/10 00:01:48;;;;;;;5.22;4.03;;;20.90;81.30;;;;;;5035021;28;20124;-72
2023/06/10 00:04:16;;;;;;;5.85;4.20;;;20.90;81.60;;;;;;5034209;28;20020;-73
2023/06/10 00:06:43;;;;;;;7.90;4.57;;;20.90;81.90;;;;;;5034573;28;20561;-72
2023/06/10 00:09:13;;;;;;;6.32;5.18;;;20.80;82.30;;;;;;5034599;28;20033;-72
2023/06/10 00:11:40;;;;;;;7.70;4.93;;;20.80;82.60;;;;;;5034483;28;20067;-72
2023/06/10 00:14:05;;;;;;;5.70;4.45;;;20.70;82.80;;;;;;5034016;28;20022;-72
2023/06/10 00:16:31;;;;;;;6.05;5.15;;;20.70;83.20;;;;;;5033935;28;20378;-72
2023/06/10 00:19:01;;;;;;;10.13;5.70;;;20.60;83.50;;;;;;5033027;28;20076;-72
2023/06/10 00:21:37;;;;;;;6.60;3.80;;;20.60;83.70;;;;;;5033997;28;20084;-72
2023/06/10 00:24:05;;;;;;;6.40;5.20;;;20.60;83.90;;;;;;5034284;28;20022;-72
2023/06/10 00:26:30;;;;;;;7.15;4.22;;;20.60;84.10;;;;;;5034001;28;20079;-72
2023/06/10 00:28:56;;;;;;;6.18;5.15;;;20.60;84.10;;;;;;5033892;28;20439;-72
2023/06/10 00:31:21;;;;;;;7.85;5.35;;;20.50;84.20;;;;;;5032012;28;20401;-72
2023/06/10 00:33:47;;;;;;;6.47;4.88;;;20.50;84.40;;;;;;5033970;28;20032;-72
2023/06/10 00:36:12;;;;;;;6.40;4.55;;;20.50;84.80;;;;;;5033732;28;20029;-72
2023/06/10 00:38:40;;;;;;;6.38;5.32;;;20.50;85.10;;;;;;5033925;28;20026;-72
2023/06/10 00:41:05;;;;;;;10.75;5.13;;;20.50;85.50;;;;;;5034041;28;20032;-72
2023/06/10 00:43:31;;;;;;;6.82;4.50;;;20.40;85.80;;;;;;5029033;28;20018;-72
2023/06/10 00:45:57;;;;;;;9.10;4.88;;;20.40;86.10;;;;;;5031381;28;20028;-72
2023/06/10 00:48:22;;;;;;;6.07;4.85;;;20.40;86.60;;;;;;5033374;28;20358;-72
2023/06/10 00:50:48;;;;;;;9.27;5.57;;;20.30;86.90;;;;;;5032557;28;20036;-72
2023/06/10 00:53:14;;;;;;;8.75;5.20;;;20.30;87.40;;;;;;5032257;28;20021;-72
2023/06/10 00:55:41;;;;;;;6.45;4.75;;;20.30;87.80;;;;;;5033968;28;20398;-72
2023/06/10 00:58:07;;;;;;;7.75;4.78;;;20.30;88.20;;;;;;5015009;28;20030;-72
2023/06/10 01:00:33;;;;;;;7.22;4.95;;;20.20;88.50;;;;;;5033265;28;20559;-72
2023/06/10 01:02:58;;;;;;;7.07;5.22;;;20.20;89.20;;;;;;5033449;28;20018;-72
2023/06/10 01:05:24;;;;;;;7.43;4.68;;;20.10;89.50;;;;;;5033069;28;20037;-72
2023/06/10 01:08:38;;;;;;;6.45;5.20;;;20.10;89.90;;;;;;5033552;28;20092;-72
2023/06/10 01:11:08;;;;;;;5.53;4.70;;;20.10;90.20;;;;;;5020246;28;20096;-72
2023/06/10 01:13:36;;;;;;;7.13;5.40;;;20.00;90.50;;;;;;5030720;28;20108;-72
2023/06/10 01:16:02;;;;;;;8.88;5.68;;;19.90;90.80;;;;;;5033340;28;20021;-72
2023/06/10 01:18:33;;;;;;;9.05;5.95;;;19.90;91.20;;;;;;5032789;28;20469;-72
2023/06/10 01:20:59;;;;;;;6.70;5.10;;;19.80;91.40;;;;;;5033185;28;20120;-72
2023/06/10 01:23:24;;;;;;;8.82;5.30;;;19.70;91.70;;;;;;5032982;28;20549;-72
2023/06/10 01:26:00;;;;;;;8.45;5.85;;;19.70;92.00;;;;;;5032641;28;20029;-72
2023/06/10 01:28:33;;;;;;;6.82;5.20;;;19.70;92.30;;;;;;5032674;28;20494;-72
2023/06/10 01:31:33;;;;;;;8.80;6.13;;;19.70;92.50;;;;;;5033362;28;20021;-72
2023/06/10 01:34:00;;;;;;;7.28;5.28;;;19.70;92.80;;;;;;5033159;28;20030;-73
2023/06/10 01:36:26;;;;;;;6.30;5.15;;;19.60;93.00;;;;;;5017599;28;20038;-72
2023/06/10 01:38:53;;;;;;;9.32;5.85;;;19.60;93.20;;;;;;5013954;28;20583;-72
2023/06/10 01:41:21;;;;;;;7.65;5.50;;;19.50;93.60;;;;;;5031372;28;20489;-72
2023/06/10 01:43:47;;;;;;;8.48;5.57;;;19.50;93.80;;;;;;5033149;28;20033;-72
2023/06/10 01:46:14;;;;;;;8.00;5.40;;;19.50;94.00;;;;;;5032651;28;20422;-73
2023/06/10 01:48:42;;;;;;;8.55;5.68;;;19.40;94.30;;;;;;5033181;28;20036;-72
2023/06/10 01:51:07;;;;;;;7.50;5.90;;;19.40;94.50;;;;;;5030776;28;20025;-72
2023/06/10 01:53:33;;;;;;;6.82;5.07;;;19.30;94.70;;;;;;5012172;28;20034;-72
2023/06/10 01:55:59;;;;;;;7.35;5.10;;;19.30;94.80;;;;;;5032370;28;20022;-72
2023/06/10 01:58:25;;;;;;;7.75;5.75;;;19.30;94.90;;;;;;5032281;28;20021;-72
2023/06/10 02:00:51;;;;;;;9.52;5.82;;;19.20;95.00;;;;;;5032515;28;20018;-72
2023/06/10 02:03:16;;;;;;;7.45;5.03;;;19.20;95.10;;;;;;5031964;28;20036;-72
2023/06/10 02:05:42;;;;;;;9.27;5.03;;;19.20;95.20;;;;;;5032002;28;20072;-72
2023/06/10 02:08:07;;;;;;;6.60;5.18;;;19.10;95.30;;;;;;5032277;28;20037;-72
2023/06/10 02:10:33;;;;;;;6.22;5.25;;;19.10;95.40;;;;;;5031789;28;20018;-72
2023/06/10 02:13:00;;;;;;;8.65;5.95;;;19.10;95.60;;;;;;5032736;28;20596;-72
2023/06/10 02:15:26;;;;;;;7.82;6.07;;;19.00;95.70;;;;;;5031792;28;20561;-72
2023/06/10 02:17:52;;;;;;;8.02;4.78;;;19.00;95.70;;;;;;5032522;28;20381;-72
2023/06/10 02:20:17;;;;;;;8.43;5.18;;;19.00;95.80;;;;;;5018683;28;20095;-72
2023/06/10 02:22:43;;;;;;;10.27;5.70;;;19.00;95.90;;;;;;5030232;28;20040;-73
2023/06/10 02:25:09;;;;;;;8.23;5.90;;;19.00;95.90;;;;;;5032005;28;20456;-72
2023/06/10 02:27:34;;;;;;;9.18;5.22;;;18.90;96.00;;;;;;5031777;28;20037;-72
2023/06/10 02:30:00;;;;;;;9.50;5.45;;;18.80;96.40;;;;;;5032116;28;20033;-72
2023/06/10 02:32:26;;;;;;;9.70;5.03;;;18.80;96.20;;;;;;5031572;28;20029;-72
2023/06/10 02:34:52;;;;;;;8.77;5.35;;;18.80;96.30;;;;;;5031490;28;20021;-72
2023/06/10 02:37:17;;;;;;;7.93;5.75;;;18.80;96.40;;;;;;5031302;28;20116;-72
2023/06/10 02:39:43;;;;;;;8.65;5.82;;;18.80;96.50;;;;;;5031871;28;20100;-72
2023/06/10 02:42:09;;;;;;;9.15;5.65;;;18.70;96.50;;;;;;5031997;28;20101;-72
2023/06/10 02:44:35;;;;;;;5.88;5.18;;;18.70;96.70;;;;;;5031569;28;20026;-72
2023/06/10 02:47:01;;;;;;;9.57;5.95;;;18.70;96.80;;;;;;5031477;28;20106;-72
2023/06/10 02:49:29;;;;;;;9.75;4.88;;;18.60;97.00;;;;;;5021715;28;20355;-72
2023/06/10 02:51:56;;;;;;;9.20;5.72;;;18.60;97.10;;;;;;5028346;28;20136;-72
2023/06/10 02:54:23;;;;;;;8.65;5.70;;;18.60;97.30;;;;;;5031293;28;20017;-72
2023/06/10 02:56:48;;;;;;;8.45;5.78;;;18.50;97.50;;;;;;5031716;28;20067;-72
2023/06/10 02:59:14;;;;;;;7.43;5.10;;;18.50;97.70;;;;;;5030815;28;20060;-72
2023/06/10 03:01:40;;;;;;;7.40;5.72;;;18.50;97.80;;;;;;5031725;28;20021;-72
2023/06/10 03:04:06;;;;;;;7.25;4.93;;;18.40;98.00;;;;;;5024409;28;20036;-72
2023/06/10 03:06:33;;;;;;;9.52;6.25;;;18.50;98.00;;;;;;5030743;28;20029;-72
2023/06/10 03:09:00;;;;;;;7.75;5.38;;;18.40;98.10;;;;;;5031393;28;20103;-71
2023/06/10 03:11:25;;;;;;;9.32;6.00;;;18.30;98.20;;;;;;5029433;28;20144;-72
2023/06/10 03:13:53;;;;;;;10.07;5.97;;;18.30;98.30;;;;;;5024957;28;20517;-72
2023/06/10 03:16:19;;;;;;;7.35;5.55;;;18.30;98.40;;;;;;5030214;28;20029;-73
2023/06/10 03:18:44;;;;;;;10.63;5.72;;;18.30;98.40;;;;;;5031214;28;20022;-72
2023/06/10 03:21:10;;;;;;;6.35;4.70;;;18.20;98.50;;;;;;5031062;28;20041;-72
2023/06/10 03:23:36;;;;;;;9.07;4.90;;;18.20;98.50;;;;;;5031298;28;20037;-72
2023/06/10 03:26:02;;;;;;;9.50;5.60;;;18.20;98.60;;;;;;5030949;28;20109;-72
2023/06/10 03:28:28;;;;;;;8.30;4.63;;;18.10;98.80;;;;;;5026729;28;20041;-72
2023/06/10 03:30:53;;;;;;;7.53;5.57;;;18.10;98.90;;;;;;5031471;28;20381;-72
2023/06/10 03:33:19;;;;;;;6.80;4.75;;;18.10;99.00;;;;;;5029157;28;20052;-72
2023/06/10 03:35:44;;;;;;;10.40;5.15;;;18.10;99.10;;;;;;5030594;28;20030;-72
2023/06/10 03:38:10;;;;;;;9.63;5.03;;;18.10;99.20;;;;;;5031235;28;20026;-72
2023/06/10 03:40:36;;;;;;;6.68;4.35;;;18.10;99.30;;;;;;5031179;28;20083;-72
2023/06/10 03:43:01;;;;;;;12.45;5.22;;;18.00;99.30;;;;;;5031258;28;20025;-72
2023/06/10 03:45:28;;;;;;;10.82;4.70;;;18.00;99.50;;;;;;5030856;28;20028;-72
2023/06/10 03:47:55;;;;;;;8.35;4.78;;;18.00;99.60;;;;;;5030739;28;20037;-72
2023/06/10 03:50:22;;;;;;;6.15;4.22;;;18.00;99.70;;;;;;5030105;28;20029;-72
2023/06/10 03:52:47;;;;;;;7.88;4.75;;;18.00;99.80;;;;;;5031198;28;20032;-72
2023/06/10 03:55:13;;;;;;;9.52;4.68;;;18.00;99.90;;;;;;5027412;28;20380;-73
2023/06/10 03:57:39;;;;;;;8.45;4.93;;;18.00;99.90;;;;;;5031059;28;20046;-72
2023/06/10 04:00:10;;;;;;;7.55;4.97;;;18.00;99.90;;;;;;5030645;28;20061;-72
2023/06/10 04:02:36;;;;;;;7.18;4.50;;;18.00;99.90;;;;;;5021974;28;20490;-72
2023/06/10 04:05:02;;;;;;;8.65;4.65;;;18.00;99.90;;;;;;5028522;28;20045;-72
2023/06/10 04:07:28;;;;;;;8.30;4.68;;;18.00;99.90;;;;;;5030265;28;20033;-72
2023/06/10 04:09:54;;;;;;;8.70;4.45;;;18.00;99.90;;;;;;5030966;28;20097;-71
2023/06/10 04:12:19;;;;;;;7.70;4.65;;;18.00;99.90;;;;;;5030387;28;20133;-72
2023/06/10 04:14:45;;;;;;;7.30;4.65;;;18.10;99.90;;;;;;5031139;28;20393;-72
2023/06/10 04:17:13;;;;;;;9.75;5.10;;;18.10;99.90;;;;;;5025017;28;20037;-72
2023/06/10 04:19:39;;;;;;;11.30;5.07;;;18.10;99.90;;;;;;5047017;28;20447;-72
2023/06/10 04:22:05;;;;;;;8.63;4.75;;;18.10;99.90;;;;;;5048992;28;20037;-72
2023/06/10 04:24:30;;;;;;;10.18;4.53;;;18.20;99.90;;;;;;5030741;28;20262;-72
2023/06/10 04:26:56;;;;;;;8.93;5.28;;;18.10;99.90;;;;;;5031876;28;20049;-72
2023/06/10 04:29:22;;;;;;;7.68;4.03;;;18.10;99.90;;;;;;5034018;28;20020;-71
2023/06/10 04:31:48;;;;;;;10.45;5.07;;;18.20;99.90;;;;;;5031962;28;20378;-71
2023/06/10 04:34:14;;;;;;;8.18;4.63;;;18.20;99.90;;;;;;5033480;28;20021;-71
2023/06/10 04:36:39;;;;;;;12.25;4.75;;;18.20;99.90;;;;;;5034632;28;20029;-71
2023/06/10 04:39:05;;;;;;;7.80;5.28;;;18.20;99.90;;;;;;5029837;28;20036;-71
2023/06/10 04:41:31;;;;;;;7.63;4.70;;;18.20;99.90;;;;;;5014708;28;20497;-71
2023/06/10 04:43:57;;;;;;;5.60;3.58;;;18.20;99.90;;;;;;5015290;28;20030;-72
2023/06/10 04:46:23;;;;;;;8.77;5.45;;;18.30;99.90;;;;;;5028019;28;20096;-72
2023/06/10 04:48:49;;;;;;;6.30;3.72;;;18.30;99.90;;;;;;5034465;28;20389;-71
2023/06/10 04:51:15;;;;;;;7.60;4.68;;;18.40;99.90;;;;;;5034285;28;20026;-72
2023/06/10 04:53:40;;;;;;;9.45;3.90;;;18.40;99.90;;;;;;5033853;28;20040;-71
2023/06/10 04:56:07;;;;;;;17.02;5.03;;;18.60;99.90;;;;;;5034391;28;20351;-71
2023/06/10 04:58:33;;;;;;;8.60;4.90;;;18.90;99.90;;;;;;5033929;28;20025;-71
2023/06/10 05:00:59;;;;;;;11.13;4.88;;;19.10;99.90;;;;;;5034640;28;20029;-71
2023/06/10 05:03:25;;;;;;;9.40;4.13;;;19.40;99.90;;;;;;5033887;28;20044;-71
2023/06/10 05:05:51;;;;;;;10.07;5.00;;;19.70;99.90;;;;;;5034089;28;20021;-71
2023/06/10 05:08:16;;;;;;;8.75;4.78;;;19.90;99.90;;;;;;5027846;28;20037;-71
2023/06/10 05:10:42;;;;;;;10.00;5.55;;;20.20;99.10;;;;;;5030898;28;20028;-72
2023/06/10 05:13:07;;;;;;;7.57;5.00;;;20.30;98.50;;;;;;5034916;28;20075;-72
2023/06/10 05:15:33;;;;;;;7.80;4.78;;;20.50;97.90;;;;;;5034120;28;20527;-71
2023/06/10 05:17:59;;;;;;;13.48;6.10;;;20.70;97.40;;;;;;5033322;28;20500;-72
2023/06/10 05:20:25;;;;;;;8.48;4.95;;;20.90;96.80;;;;;;5032750;28;20041;-72
2023/06/10 05:22:51;;;;;;;6.32;4.28;;;21.00;96.40;;;;;;5032993;28;20386;-71
2023/06/10 05:25:16;;;;;;;5.75;4.20;;;21.10;96.10;;;;;;5035709;28;20021;-72
2023/06/10 05:27:42;;;;;;;7.70;4.97;;;21.30;95.90;;;;;;5038800;28;20033;-71
2023/06/10 05:30:10;;;;;;;9.15;4.43;;;21.50;95.30;;;;;;5047184;28;20036;-72
2023/06/10 05:32:35;;;;;;;7.38;4.20;;;21.60;94.80;;;;;;5038601;28;20037;-72
2023/06/10 05:35:01;;;;;;;7.20;4.20;;;21.80;94.20;;;;;;5035003;28;20029;-72
2023/06/10 05:37:27;;;;;;;6.30;4.15;;;21.80;94.10;;;;;;5031739;28;20061;-72
2023/06/10 05:39:52;;;;;;;6.80;4.20;;;21.90;93.80;;;;;;5025492;28;20041;-71
2023/06/10 05:42:18;;;;;;;11.55;4.60;;;22.00;93.50;;;;;;5032728;28;20108;-71
2023/06/10 05:44:43;;;;;;;7.28;4.90;;;22.00;93.30;;;;;;5033175;28;20026;-71
2023/06/10 05:47:09;;;;;;;6.03;4.32;;;22.00;92.70;;;;;;5032758;28;20508;-72
2023/06/10 05:49:35;;;;;;;8.95;4.22;;;22.10;92.30;;;;;;5032134;28;20470;-72
2023/06/10 05:52:00;;;;;;;8.43;5.50;;;22.00;92.30;;;;;;5032057;28;20033;-72
2023/06/10 05:54:26;;;;;;;9.00;4.72;;;22.00;92.10;;;;;;5032449;28;20452;-72
2023/06/10 05:56:52;;;;;;;7.30;3.95;;;21.90;92.00;;;;;;5032851;28;20024;-72
2023/06/10 05:59:17;;;;;;;10.18;4.80;;;21.90;92.00;;;;;;5024831;28;20489;-71
2023/06/10 06:01:43;;;;;;;8.65;5.43;;;21.90;91.80;;;;;;5032559;28;20029;-72
2023/06/10 06:04:08;;;;;;;10.60;5.68;;;21.80;91.70;;;;;;5032417;28;20032;-72
2023/06/10 06:06:35;;;;;;;7.35;4.63;;;21.70;91.80;;;;;;5031843;28;20065;-71
2023/06/10 06:09:01;;;;;;;6.38;4.20;;;21.60;92.00;;;;;;5032462;28;20025;-71
2023/06/10 06:11:27;;;;;;;7.68;4.72;;;21.70;92.10;;;;;;5025631;28;20018;-71
2023/06/10 06:13:52;;;;;;;7.03;5.05;;;21.80;92.20;;;;;;5012661;28;20030;-71
2023/06/10 06:16:18;;;;;;;10.88;4.93;;;21.80;92.40;;;;;;5021481;28;20252;-71
2023/06/10 06:18:44;;;;;;;9.05;5.47;;;21.90;92.10;;;;;;5014346;28;20370;-72
2023/06/10 06:21:09;;;;;;;8.60;4.97;;;22.10;92.10;;;;;;5032079;28;20033;-72
2023/06/10 06:23:35;;;;;;;10.32;5.22;;;22.20;91.80;;;;;;5031770;28;20052;-72
2023/06/10 06:26:00;;;;;;;7.82;4.45;;;22.20;91.60;;;;;;5032307;28;20076;-72
2023/06/10 06:28:28;;;;;;;9.27;5.15;;;22.30;91.50;;;;;;5031709;28;20036;-71
2023/06/10 06:30:55;;;;;;;10.18;4.80;;;22.30;91.50;;;;;;5031132;28;20037;-72
2023/06/10 06:33:21;;;;;;;10.10;5.53;;;22.40;91.70;;;;;;5020290;28;20109;-72
2023/06/10 06:35:46;;;;;;;8.90;5.13;;;22.40;91.30;;;;;;5027105;28;20100;-72
2023/06/10 06:38:12;;;;;;;8.27;4.38;;;22.40;90.90;;;;;;5031620;28;20025;-71
2023/06/10 06:40:37;;;;;;;9.27;5.15;;;22.40;91.10;;;;;;5031888;28;20029;-71
2023/06/10 06:43:03;;;;;;;8.68;5.25;;;22.40;91.00;;;;;;5032105;28;20021;-72
2023/06/10 06:45:28;;;;;;;7.55;4.22;;;22.40;91.10;;;;;;5030113;28;20030;-72
2023/06/10 06:47:55;;;;;;;8.93;4.90;;;22.40;90.60;;;;;;5021472;28;20038;-72
2023/06/10 06:50:21;;;;;;;9.73;4.38;;;22.40;90.50;;;;;;5011367;28;20509;-71
2023/06/10 06:52:47;;;;;;;6.75;4.05;;;22.40;90.40;;;;;;5025059;28;20100;-72
2023/06/10 06:55:12;;;;;;;6.00;4.07;;;22.50;90.70;;;;;;5031437;28;20071;-72
2023/06/10 06:57:38;;;;;;;8.27;4.82;;;22.60;90.60;;;;;;5031555;28;20061;-72
2023/06/10 07:00:04;;;;;;;9.68;4.40;;;22.70;90.30;;;;;;5029881;28;20028;-72
2023/06/10 07:02:31;;;;;;;5.80;4.50;;;22.70;90.00;;;;;;5030954;28;20029;-71
2023/06/10 07:04:58;;;;;;;10.68;4.75;;;22.80;89.90;;;;;;5013260;28;20370;-72
2023/06/10 07:07:24;;;;;;;10.55;5.00;;;22.80;89.20;;;;;;5023846;28;20136;-71
2023/06/10 07:09:50;;;;;;;9.57;4.50;;;22.80;89.30;;;;;;5017464;28;20017;-72
2023/06/10 07:12:15;;;;;;;12.27;5.18;;;22.90;89.10;;;;;;5017874;28;20499;-71
2023/06/10 07:14:41;;;;;;;7.78;4.85;;;22.90;88.60;;;;;;5031427;28;20029;-72
2023/06/10 07:17:07;;;;;;;10.90;4.53;;;23.00;88.40;;;;;;5031294;28;20033;-72
2023/06/10 07:19:32;;;;;;;7.03;4.57;;;23.00;88.20;;;;;;5030446;28;20049;-72
2023/06/10 07:21:58;;;;;;;8.35;4.43;;;23.10;88.20;;;;;;5030535;28;20042;-72
2023/06/10 07:24:23;;;;;;;6.28;4.43;;;23.20;87.60;;;;;;5030783;28;20026;-72
2023/06/10 07:26:49;;;;;;;7.53;4.20;;;23.30;87.40;;;;;;5031197;28;20051;-71
2023/06/10 07:29:15;;;;;;;9.32;4.15;;;23.40;87.20;;;;;;5030727;28;20049;-72
2023/06/10 07:31:41;;;;;;;7.72;4.90;;;23.40;86.90;;;;;;5031191;28;20070;-72
2023/06/10 07:34:07;;;;;;;8.13;4.93;;;23.60;86.60;;;;;;5029489;28;20076;-72
2023/06/10 07:36:33;;;;;;;6.90;4.28;;;23.60;85.60;;;;;;5029489;28;20025;-72
2023/06/10 07:38:58;;;;;;;7.97;4.60;;;23.60;85.20;;;;;;5031191;28;20029;-72
2023/06/10 07:41:27;;;;;;;10.23;4.95;;;23.60;85.00;;;;;;5030819;28;20078;-72
2023/06/10 07:43:56;;;;;;;12.85;5.43;;;23.70;84.20;;;;;;5031177;28;20029;-72
2023/06/10 07:46:22;;;;;;;8.35;4.32;;;23.70;83.70;;;;;;5013619;28;20397;-72
2023/06/10 07:48:48;;;;;;;7.10;3.65;;;23.80;84.50;;;;;;5030739;28;20285;-72
2023/06/10 07:51:15;;;;;;;5.47;4.00;;;23.80;84.20;;;;;;5013688;28;20026;-72
2023/06/10 07:53:41;;;;;;;7.75;3.85;;;24.00;83.80;;;;;;5011356;28;20034;-72
2023/06/10 07:56:06;;;;;;;6.18;3.70;;;24.10;83.50;;;;;;5011301;28;20033;-72
2023/06/10 07:58:32;;;;;;;9.85;4.32;;;24.20;82.90;;;;;;5021889;28;20027;-72
2023/06/10 08:00:57;;;;;;;6.30;3.88;;;24.20;82.10;;;;;;5030914;28;20084;-72
2023/06/10 08:03:23;;;;;;;6.22;4.10;;;24.20;81.80;;;;;;5015848;28;20079;-72
2023/06/10 08:05:48;;;;;;;8.68;4.07;;;24.20;81.70;;;;;;5033993;28;20030;-72
2023/06/10 08:08:14;;;;;;;6.50;3.90;;;24.30;81.90;;;;;;5034205;28;20041;-72
2023/06/10 08:10:40;;;;;;;7.35;3.85;;;24.50;81.90;;;;;;5034665;28;20021;-72
2023/06/10 08:13:05;;;;;;;9.55;4.60;;;24.60;81.30;;;;;;5034592;28;20515;-72
2023/06/10 08:15:31;;;;;;;7.90;4.60;;;24.60;81.30;;;;;;5034320;28;20504;-72
2023/06/10 08:17:56;;;;;;;12.55;4.82;;;24.70;80.30;;;;;;5033844;28;20036;-72
2023/06/10 08:20:22;;;;;;;7.18;4.50;;;24.70;80.00;;;;;;5033515;28;20081;-72
2023/06/10 08:22:48;;;;;;;6.47;4.55;;;24.70;80.30;;;;;;5034191;28;20025;-71
2023/06/10 08:25:13;;;;;;;5.90;4.18;;;24.70;80.40;;;;;;5034012;28;20096;-72
2023/06/10 08:27:39;;;;;;;6.53;4.53;;;24.90;80.10;;;;;;5034318;28;20350;-72
2023/06/10 08:30:05;;;;;;;8.65;4.22;;;24.90;79.70;;;;;;5034510;28;20065;-71
2023/06/10 08:32:30;;;;;;;10.27;4.85;;;25.10;79.50;;;;;;5033053;28;20104;-71
2023/06/10 08:34:56;;;;;;;6.32;4.03;;;25.10;79.90;;;;;;5033917;28;20091;-72
2023/06/10 08:37:22;;;;;;;6.93;4.47;;;25.40;79.80;;;;;;5033968;28;20037;-72
2023/06/10 08:39:47;;;;;;;6.65;4.50;;;25.50;79.20;;;;;;5033866;28;20496;-72
2023/06/10 08:42:19;;;;;;;9.68;5.15;;;25.50;78.80;;;;;;5033465;28;20032;-72
2023/06/10 08:44:46;;;;;;;8.52;5.25;;;25.60;77.90;;;;;;5033401;28;20021;-72
2023/06/10 08:47:16;;;;;;;9.00;5.18;;;25.60;77.30;;;;;;5024699;28;20042;-72
2023/06/10 08:49:47;;;;;;;7.43;4.28;;;25.50;77.40;;;;;;5029904;28;20025;-72
2023/06/10 08:52:17;;;;;;;8.15;4.50;;;25.50;78.00;;;;;;5033709;28;20442;-72
2023/06/10 08:54:56;;;;;;;7.40;4.25;;;25.60;77.70;;;;;;5034061;28;20028;-72
2023/06/10 08:57:22;;;;;;;9.25;4.65;;;25.60;77.40;;;;;;5033497;28;20492;-72
2023/06/10 08:59:49;;;;;;;6.75;4.50;;;25.70;77.20;;;;;;5033296;28;20028;-71
2023/06/10 09:02:15;;;;;;;8.63;4.80;;;25.60;76.70;;;;;;5026939;28;20481;-72
2023/06/10 09:04:45;;;;;;;7.20;3.78;;;25.60;77.80;;;;;;5033053;28;20060;-71
2023/06/10 09:07:12;;;;;;;7.85;4.65;;;25.80;78.50;;;;;;5032994;28;20037;-73
2023/06/10 09:09:38;;;;;;;6.75;4.40;;;25.90;76.40;;;;;;5033387;28;20025;-72
2023/06/10 09:12:04;;;;;;;6.47;4.18;;;25.90;76.10;;;;;;5033209;28;20017;-72
2023/06/10 09:14:30;;;;;;;6.75;4.28;;;25.90;76.10;;;;;;5029775;28;20025;-72
2023/06/10 09:16:57;;;;;;;8.73;4.25;;;26.10;75.90;;;;;;5028305;28;20049;-72
2023/06/10 09:19:25;;;;;;;10.57;4.85;;;26.10;75.70;;;;;;5032728;28;20042;-71
2023/06/10 09:21:50;;;;;;;7.55;4.68;;;26.30;75.00;;;;;;5033240;28;20021;-72
2023/06/10 09:24:16;;;;;;;8.63;4.63;;;26.30;74.80;;;;;;5032538;28;20080;-72
2023/06/10 09:26:43;;;;;;;9.85;4.75;;;26.40;74.00;;;;;;5032733;28;20091;-72
2023/06/10 09:29:10;;;;;;;6.90;4.57;;;26.40;73.60;;;;;;5024603;28;20030;-72
2023/06/10 09:31:37;;;;;;;6.20;3.65;;;26.50;73.20;;;;;;5013848;28;20099;-72
2023/06/10 09:34:25;;;;;;;8.13;5.05;;;26.60;72.80;;;;;;5013422;28;20500;-73
2023/06/10 09:36:53;;;;;;;9.65;4.63;;;26.60;71.90;;;;;;5031389;28;20030;-73
2023/06/10 09:39:18;;;;;;;6.40;4.10;;;26.60;71.80;;;;;;5032697;28;20431;-74
2023/06/10 09:41:46;;;;;;;5.45;4.38;;;26.60;72.30;;;;;;5015068;28;20030;-73
2023/06/10 09:44:16;;;;;;;7.60;4.18;;;26.80;71.60;;;;;;5031108;28;20446;-73
2023/06/10 09:46:42;;;;;;;6.03;3.75;;;26.90;72.00;;;;;;5032450;28;20556;-73
2023/06/10 09:49:08;;;;;;;8.40;4.53;;;27.10;71.80;;;;;;5033005;28;20033;-73
2023/06/10 09:51:34;;;;;;;6.97;4.22;;;27.20;71.50;;;;;;5032501;28;20049;-73
2023/06/10 09:54:03;;;;;;;7.45;4.32;;;27.30;70.90;;;;;;5032356;28;20497;-72
2023/06/10 09:56:35;;;;;;;10.48;4.53;;;27.20;69.60;;;;;;5032405;28;20025;-73
2023/06/10 09:59:02;;;;;;;8.57;3.63;;;27.30;69.80;;;;;;5023304;28;20072;-73
2023/06/10 10:01:28;;;;;;;5.68;3.78;;;27.40;70.10;;;;;;5031645;28;20504;-73
2023/06/10 10:03:53;;;;;;;6.45;4.00;;;27.50;69.60;;;;;;5032379;28;20033;-72
2023/06/10 10:06:20;;;;;;;5.20;3.17;;;27.60;69.20;;;;;;5032225;28;20018;-73
2023/06/10 10:08:48;;;;;;;8.98;3.72;;;27.60;69.60;;;;;;5031655;28;20037;-73
2023/06/10 10:11:17;;;;;;;8.18;3.47;;;27.90;69.60;;;;;;5027325;28;20026;-73
2023/06/10 10:13:46;;;;;;;5.95;3.35;;;28.10;69.10;;;;;;5032111;28;20057;-73
2023/06/10 10:16:16;;;;;;;6.13;3.15;;;28.30;68.80;;;;;;5031820;28;20026;-73
2023/06/10 10:18:45;;;;;;;6.43;3.80;;;28.50;66.70;;;;;;5032484;28;20025;-73
2023/06/10 10:21:15;;;;;;;8.20;4.07;;;28.50;66.00;;;;;;5030834;28;20083;-73
2023/06/10 10:24:01;;;;;;;7.03;3.30;;;28.50;65.50;;;;;;5017675;28;20030;-73
2023/06/10 10:26:27;;;;;;;7.78;4.18;;;28.60;65.60;;;;;;5031538;28;20075;-73
2023/06/10 10:29:14;;;;;;;11.32;4.25;;;28.60;64.50;;;;;;5032060;28;20117;-72
2023/06/10 10:31:43;;;;;;;6.68;3.22;;;28.60;64.90;;;;;;5032403;28;20017;-73
2023/06/10 10:34:15;;;;;;;6.50;3.83;;;28.70;63.80;;;;;;5031766;28;20029;-72
2023/06/10 10:36:41;;;;;;;5.65;3.22;;;28.60;64.50;;;;;;5025252;28;20030;-73
2023/06/10 10:39:07;;;;;;;6.30;3.95;;;28.60;63.80;;;;;;5022438;28;20108;-73
2023/06/10 10:41:33;;;;;;;6.32;3.47;;;28.60;62.60;;;;;;5031405;28;20120;-72
2023/06/10 10:44:00;;;;;;;5.53;3.03;;;28.60;62.60;;;;;;5031795;28;20036;-73
2023/06/10 10:46:25;;;;;;;5.70;3.35;;;28.60;63.40;;;;;;5031045;28;20017;-73
2023/06/10 10:48:54;;;;;;;7.38;3.22;;;28.80;62.60;;;;;;5031803;28;20041;-73
2023/06/10 10:51:20;;;;;;;3.80;2.92;;;28.90;63.00;;;;;;5030068;28;20022;-73
2023/06/10 10:54:12;;;;;;;4.95;2.90;;;29.00;62.60;;;;;;5031609;28;20029;-73
2023/06/10 10:56:38;;;;;;;5.25;2.90;;;29.10;62.00;;;;;;5030308;28;20474;-73
2023/06/10 10:59:06;;;;;;;5.88;3.10;;;29.20;61.70;;;;;;5031803;28;20032;-73
2023/06/10 11:01:42;;;;;;;7.18;2.83;;;29.20;59.60;;;;;;5031408;28;20022;-73
2023/06/10 11:04:09;;;;;;;6.43;2.97;;;29.30;59.70;;;;;;5031355;28;20473;-70
2023/06/10 11:06:35;;;;;;;8.73;2.67;;;29.30;58.40;;;;;;5022410;28;20030;-73
2023/06/10 11:09:00;;;;;;;5.20;3.13;;;29.20;58.90;;;;;;5031339;28;20151;-73
2023/06/10 11:11:31;;;;;;;4.85;2.60;;;29.40;57.70;;;;;;5030644;28;20069;-73
2023/06/10 11:14:06;;;;;;;4.28;2.75;;;29.30;57.60;;;;;;5031544;28;20029;-73
2023/06/10 11:16:42;;;;;;;8.68;2.85;;;29.30;57.80;;;;;;5031066;28;20151;-73
2023/06/10 11:19:08;;;;;;;3.58;2.92;;;29.30;57.60;;;;;;5031315;28;20045;-73
2023/06/10 11:21:59;;;;;;;4.43;2.63;;;29.40;57.80;;;;;;5029731;28;20029;-73
2023/06/10 11:24:25;;;;;;;4.50;2.65;;;29.50;57.90;;;;;;5031189;28;20032;-73
2023/06/10 11:26:51;;;;;;;6.53;3.15;;;29.60;57.50;;;;;;5031115;28;20481;-73
2023/06/10 11:29:17;;;;;;;4.75;3.13;;;29.50;56.30;;;;;;5030883;28;20029;-73
2023/06/10 11:31:50;;;;;;;5.28;2.90;;;29.40;56.40;;;;;;5031058;28;20026;-73
2023/06/10 11:34:26;;;;;;;4.18;2.55;;;29.40;56.80;;;;;;5029236;28;20489;-72
2023/06/10 11:36:55;;;;;;;3.75;2.97;;;29.50;56.00;;;;;;5028859;28;20078;-72
2023/06/10 11:39:23;;;;;;;4.68;3.03;;;29.50;55.90;;;;;;5015006;28;20068;-72
2023/06/10 11:41:50;;;;;;;4.40;3.22;;;29.60;55.30;;;;;;4997737;28;20026;-72
2023/06/10 11:44:16;;;;;;;4.47;2.60;;;29.60;55.70;;;;;;5015103;28;20053;-73
2023/06/10 11:46:44;;;;;;;3.42;2.17;;;29.60;55.80;;;;;;5011072;28;20052;-72
2023/06/10 11:49:11;;;;;;;3.50;2.58;;;29.80;55.20;;;;;;5013033;28;20034;-72
2023/06/10 11:51:39;;;;;;;3.92;2.75;;;29.70;55.20;;;;;;5023237;28;20036;-72
2023/06/10 11:54:04;;;;;;;4.80;2.35;;;29.90;55.00;;;;;;5034684;28;20028;-72
2023/06/10 11:56:31;;;;;;;5.03;3.08;;;29.90;54.10;;;;;;5034470;28;20025;-72
2023/06/10 11:59:04;;;;;;;6.82;2.88;;;29.90;53.90;;;;;;5034763;28;20033;-72
2023/06/10 12:01:31;;;;;;;6.28;2.97;;;29.80;54.20;;;;;;5034248;28;20055;-72
2023/06/10 12:03:59;;;;;;;6.15;2.95;;;29.80;54.00;;;;;;5017436;28;20025;-72
2023/06/10 12:06:25;;;;;;;4.03;2.97;;;29.80;54.80;;;;;;5034437;28;20052;-72
2023/06/10 12:08:51;;;;;;;4.68;3.03;;;30.00;53.50;;;;;;5016914;28;20038;-72
2023/06/10 12:11:16;;;;;;;5.32;2.72;;;30.10;53.70;;;;;;5034218;28;20057;-72
2023/06/10 12:13:50;;;;;;;6.13;3.10;;;30.20;53.50;;;;;;5034766;28;20025;-72
2023/06/10 12:16:16;;;;;;;7.07;2.63;;;30.20;53.80;;;;;;5033961;28;20018;-72
2023/06/10 12:18:44;;;;;;;3.58;2.40;;;30.40;53.40;;;;;;5033695;28;20392;-72
2023/06/10 12:21:22;;;;;;;3.95;2.60;;;30.50;52.60;;;;;;5034482;28;20025;-73
2023/06/10 12:24:05;;;;;;;6.90;2.72;;;30.70;51.90;;;;;;5034541;28;20028;-72
2023/06/10 12:26:39;;;;;;;3.28;2.50;;;30.70;51.80;;;;;;5033883;28;20032;-72
2023/06/10 12:29:18;;;;;;;5.15;2.45;;;30.50;51.20;;;;;;5034094;28;20477;-72
2023/06/10 12:32:02;;;;;;;4.50;2.40;;;30.30;51.20;;;;;;5030833;28;20076;-72
2023/06/10 12:34:39;;;;;;;6.10;2.80;;;30.30;52.10;;;;;;5033782;28;20025;-72
2023/06/10 12:37:16;;;;;;;4.90;2.72;;;30.40;51.00;;;;;;5034147;28;20022;-72
2023/06/10 12:39:51;;;;;;;7.05;2.92;;;30.40;51.10;;;;;;5033022;28;20088;-73
2023/06/10 12:42:17;;;;;;;3.85;2.70;;;30.30;52.10;;;;;;5033578;28;20021;-73
2023/06/10 12:44:42;;;;;;;4.32;2.53;;;30.40;51.80;;;;;;5033615;28;20037;-72
2023/06/10 12:47:09;;;;;;;3.90;2.75;;;30.50;51.80;;;;;;5033157;28;20037;-72